createdAt,value
2018-04-29T00:00:53.420Z,0
2018-04-29T00:01:54.141Z,0
2018-04-29T00:02:54.891Z,0
2018-04-29T00:03:55.614Z,0
2018-04-29T00:04:56.337Z,0
2018-04-29T00:05:57.070Z,0
2018-04-29T00:06:57.790Z,0
2018-04-29T00:07:58.535Z,0
2018-04-29T00:08:59.257Z,0
2018-04-29T00:09:59.979Z,0
2018-04-29T00:11:00.726Z,0
2018-04-29T00:12:01.459Z,0
2018-04-29T00:13:02.225Z,0
2018-04-29T00:14:02.948Z,0
2018-04-29T00:15:03.696Z,0
2018-04-29T00:16:04.415Z,0
2018-04-29T00:17:05.155Z,0
2018-04-29T00:18:05.883Z,0
2018-04-29T00:19:06.653Z,0
2018-04-29T00:20:07.379Z,0
2018-04-29T00:21:08.094Z,0
2018-04-29T00:22:08.838Z,0
2018-04-29T00:23:09.563Z,0
2018-04-29T00:24:10.284Z,0
2018-04-29T00:25:11.007Z,0
2018-04-29T00:26:11.731Z,0
2018-04-29T00:27:12.455Z,0
2018-04-29T00:28:13.175Z,0
2018-04-29T00:29:13.896Z,0
2018-04-29T00:30:14.631Z,0
2018-04-29T00:31:15.353Z,0
2018-04-29T00:32:16.111Z,0
2018-04-29T00:33:16.846Z,0
2018-04-29T00:34:17.573Z,0
2018-04-29T00:35:18.292Z,0
2018-04-29T00:36:19.025Z,0
2018-04-29T00:37:19.750Z,0
2018-04-29T00:38:20.472Z,0
2018-04-29T00:39:21.195Z,0
2018-04-29T00:40:21.951Z,0
2018-04-29T00:41:22.684Z,0
2018-04-29T00:42:23.421Z,0
2018-04-29T00:43:24.152Z,0
2018-04-29T00:44:24.873Z,0
2018-04-29T00:45:25.606Z,0
2018-04-29T00:46:26.332Z,0
2018-04-29T00:47:27.079Z,0
2018-04-29T00:48:27.800Z,0
2018-04-29T00:49:28.533Z,0
2018-04-29T00:50:29.254Z,0
2018-04-29T00:51:29.989Z,0
2018-04-29T00:52:30.722Z,0
2018-04-29T00:53:31.445Z,0
2018-04-29T00:54:32.165Z,0
2018-04-29T00:55:32.897Z,0
2018-04-29T00:56:33.624Z,0
2018-04-29T00:57:34.345Z,0
2018-04-29T00:58:35.068Z,0
2018-04-29T00:59:35.791Z,0
2018-04-29T01:00:36.515Z,0
2018-04-29T01:01:37.237Z,0
2018-04-29T01:02:37.959Z,0
2018-04-29T01:03:38.682Z,0
2018-04-29T01:04:39.417Z,0
2018-04-29T01:05:40.140Z,0
2018-04-29T01:06:40.874Z,0
2018-04-29T01:07:41.596Z,0
2018-04-29T01:08:42.331Z,0
2018-04-29T01:09:43.066Z,0
2018-04-29T01:10:43.789Z,0
2018-04-29T01:11:44.510Z,0
2018-04-29T01:12:45.235Z,0
2018-04-29T01:13:45.994Z,0
2018-04-29T01:14:46.730Z,0
2018-04-29T01:15:47.472Z,0
2018-04-29T01:16:48.202Z,0
2018-04-29T01:17:48.924Z,0
2018-04-29T01:18:49.637Z,0
2018-04-29T01:19:50.361Z,0
2018-04-29T01:20:51.073Z,0
2018-04-29T01:21:51.784Z,0
2018-04-29T01:22:52.509Z,0
2018-04-29T01:23:53.223Z,0
2018-04-29T01:24:53.948Z,0
2018-04-29T01:25:54.662Z,0
2018-04-29T01:26:55.373Z,0
2018-04-29T01:27:56.085Z,0
2018-04-29T01:28:56.810Z,0
2018-04-29T01:29:57.537Z,0
2018-04-29T01:30:58.251Z,0
2018-04-29T01:31:58.971Z,0
2018-04-29T01:32:59.692Z,0
2018-04-29T01:34:00.405Z,0
2018-04-29T01:35:01.128Z,0
2018-04-29T01:36:01.831Z,0
2018-04-29T01:37:02.556Z,0
2018-04-29T01:38:03.283Z,0
2018-04-29T01:39:03.994Z,0
2018-04-29T01:40:04.706Z,0
2018-04-29T01:41:05.420Z,0
2018-04-29T01:42:06.130Z,0
2018-04-29T01:43:06.843Z,0
2018-04-29T01:44:07.568Z,0
2018-04-29T01:45:08.281Z,0
2018-04-29T01:46:08.995Z,0
2018-04-29T01:47:09.707Z,0
2018-04-29T01:48:10.421Z,0
2018-04-29T01:49:11.133Z,0
2018-04-29T01:50:11.846Z,0
2018-04-29T01:51:12.573Z,0
2018-04-29T01:52:13.288Z,0
2018-04-29T01:53:14.000Z,0
2018-04-29T01:54:14.716Z,0
2018-04-29T01:55:15.427Z,0
2018-04-29T01:56:16.139Z,0
2018-04-29T01:57:16.852Z,0
2018-04-29T01:58:17.564Z,0
2018-04-29T01:59:18.276Z,0
2018-04-29T02:00:18.988Z,0
2018-04-29T02:01:19.701Z,0
2018-04-29T02:02:20.412Z,0
2018-04-29T02:03:21.125Z,0
2018-04-29T02:04:21.835Z,0
2018-04-29T02:05:22.549Z,0
2018-04-29T02:06:23.259Z,0
2018-04-29T02:07:23.972Z,0
2018-04-29T02:08:24.697Z,0
2018-04-29T02:09:25.411Z,0
2018-04-29T02:10:26.123Z,0
2018-04-29T02:11:26.833Z,0
2018-04-29T02:12:27.545Z,0
2018-04-29T02:13:28.271Z,0
2018-04-29T02:14:28.985Z,0
2018-04-29T02:15:29.699Z,0
2018-04-29T02:16:30.412Z,0
2018-04-29T02:17:31.125Z,0
2018-04-29T02:18:31.838Z,0
2018-04-29T02:19:32.551Z,0
2018-04-29T02:20:33.267Z,0
2018-04-29T02:21:33.989Z,0
2018-04-29T02:22:34.702Z,0
2018-04-29T02:23:35.427Z,0
2018-04-29T02:24:36.141Z,0
2018-04-29T02:25:36.854Z,0
2018-04-29T02:26:37.579Z,0
2018-04-29T02:27:38.304Z,0
2018-04-29T02:28:39.031Z,0
2018-04-29T02:29:39.744Z,0
2018-04-29T02:30:40.457Z,0
2018-04-29T02:31:41.421Z,0
2018-04-29T02:32:42.147Z,0
2018-04-29T02:33:42.871Z,0
2018-04-29T02:34:43.599Z,0
2018-04-29T02:35:44.314Z,0
2018-04-29T02:36:45.030Z,0
2018-04-29T02:37:45.740Z,0
2018-04-29T02:38:46.452Z,0
2018-04-29T02:39:47.163Z,0
2018-04-29T02:40:47.932Z,0
2018-04-29T02:41:48.591Z,0
2018-04-29T02:42:49.313Z,0
2018-04-29T02:43:50.026Z,0
2018-04-29T02:44:50.738Z,0
2018-04-29T02:45:51.451Z,0
2018-04-29T02:46:52.163Z,0
2018-04-29T02:47:52.876Z,0
2018-04-29T02:48:53.588Z,0
2018-04-29T02:49:54.301Z,0
2018-04-29T02:50:55.015Z,0
2018-04-29T02:51:55.726Z,0
2018-04-29T02:52:56.444Z,0
2018-04-29T02:53:57.152Z,0
2018-04-29T02:54:57.865Z,0
2018-04-29T02:55:58.578Z,0
2018-04-29T02:56:59.291Z,0
2018-04-29T02:58:00.008Z,0
2018-04-29T02:59:00.717Z,0
2018-04-29T03:00:01.431Z,0
2018-04-29T03:01:02.142Z,0
2018-04-29T03:02:02.855Z,0
2018-04-29T03:03:03.568Z,0
2018-04-29T03:04:04.279Z,0
2018-04-29T03:05:04.996Z,0
2018-04-29T03:06:05.702Z,0
2018-04-29T03:07:06.413Z,0
2018-04-29T03:08:07.124Z,0
2018-04-29T03:09:07.837Z,0
2018-04-29T03:10:08.557Z,0
2018-04-29T03:11:09.271Z,0
2018-04-29T03:12:09.983Z,0
2018-04-29T03:13:10.697Z,0
2018-04-29T03:14:11.409Z,0
2018-04-29T03:15:12.135Z,0
2018-04-29T03:16:12.848Z,0
2018-04-29T03:17:13.563Z,0
2018-04-29T03:18:14.274Z,0
2018-04-29T03:19:14.988Z,0
2018-04-29T03:20:15.700Z,0
2018-04-29T03:21:16.413Z,0
2018-04-29T03:22:17.123Z,0
2018-04-29T03:23:17.850Z,0
2018-04-29T03:24:18.560Z,0
2018-04-29T03:25:19.273Z,0
2018-04-29T03:26:19.986Z,0
2018-04-29T03:27:20.697Z,0
2018-04-29T03:28:21.408Z,0
2018-04-29T03:29:22.120Z,0
2018-04-29T03:30:22.846Z,0
2018-04-29T03:31:23.560Z,0
2018-04-29T03:32:24.273Z,0
2018-04-29T03:33:24.985Z,4
2018-04-29T03:34:25.707Z,4
2018-04-29T03:35:26.421Z,4
2018-04-29T03:36:27.134Z,4
2018-04-29T03:37:27.845Z,4
2018-04-29T03:38:28.568Z,4
2018-04-29T03:39:29.278Z,4
2018-04-29T03:40:29.991Z,8
2018-04-29T03:41:30.701Z,8
2018-04-29T03:42:31.429Z,12
2018-04-29T03:43:32.154Z,12
2018-04-29T03:44:32.867Z,12
2018-04-29T03:45:33.580Z,12
2018-04-29T03:46:34.293Z,16
2018-04-29T03:47:35.006Z,16
2018-04-29T03:48:35.718Z,20
2018-04-29T03:49:36.430Z,24
2018-04-29T03:50:37.144Z,28
2018-04-29T03:51:37.863Z,32
2018-04-29T03:52:38.574Z,36
2018-04-29T03:53:39.287Z,40
2018-04-29T03:54:40.000Z,44
2018-04-29T03:55:40.713Z,52
2018-04-29T03:56:41.424Z,56
2018-04-29T03:57:42.138Z,64
2018-04-29T03:58:42.849Z,72
2018-04-29T03:59:43.562Z,80
2018-04-29T04:00:44.272Z,88
2018-04-29T04:01:51.287Z,100
2018-04-29T04:02:45.713Z,112
2018-04-29T04:03:46.431Z,124
2018-04-29T04:04:47.157Z,140
2018-04-29T04:05:47.871Z,156
2018-04-29T04:06:48.587Z,172
2018-04-29T04:07:49.301Z,188
2018-04-29T04:08:50.020Z,208
2018-04-29T04:09:50.794Z,224
2018-04-29T04:10:51.466Z,248
2018-04-29T04:11:52.191Z,272
2018-04-29T04:12:52.924Z,300
2018-04-29T04:13:53.636Z,332
2018-04-29T04:14:54.351Z,360
2018-04-29T04:15:55.067Z,396
2018-04-29T04:16:55.793Z,432
2018-04-29T04:17:56.522Z,468
2018-04-29T04:18:57.238Z,492
2018-04-29T04:19:57.954Z,512
2018-04-29T04:20:58.668Z,532
2018-04-29T04:21:59.384Z,556
2018-04-29T04:23:00.099Z,576
2018-04-29T04:24:00.811Z,604
2018-04-29T04:25:01.526Z,628
2018-04-29T04:26:02.244Z,660
2018-04-29T04:27:02.958Z,692
2018-04-29T04:28:03.686Z,724
2018-04-29T04:29:04.413Z,768
2018-04-29T04:30:05.131Z,812
2018-04-29T04:31:05.845Z,868
2018-04-29T04:32:06.561Z,932
2018-04-29T04:33:07.275Z,992
2018-04-29T04:34:08.005Z,1040
2018-04-29T04:35:08.725Z,1076
2018-04-29T04:36:09.443Z,1116
2018-04-29T04:37:10.159Z,1164
2018-04-29T04:38:10.881Z,1216
2018-04-29T04:39:11.597Z,1280
2018-04-29T04:40:12.397Z,1328
2018-04-29T04:41:13.031Z,1348
2018-04-29T04:42:13.748Z,1348
2018-04-29T04:43:14.466Z,1344
2018-04-29T04:44:15.190Z,1336
2018-04-29T04:45:15.899Z,1336
2018-04-29T04:46:16.615Z,1336
2018-04-29T04:47:17.330Z,1340
2018-04-29T04:48:18.045Z,1340
2018-04-29T04:49:18.762Z,1336
2018-04-29T04:50:19.492Z,1324
2018-04-29T04:51:20.222Z,1300
2018-04-29T04:52:20.939Z,1264
2018-04-29T04:53:21.657Z,1224
2018-04-29T04:54:22.373Z,1184
2018-04-29T04:55:23.090Z,1168
2018-04-29T04:56:23.807Z,1164
2018-04-29T04:57:24.523Z,1168
2018-04-29T04:58:25.240Z,1184
2018-04-29T04:59:25.955Z,1212
2018-04-29T05:00:26.684Z,1228
2018-04-29T05:01:27.399Z,1244
2018-04-29T05:02:28.117Z,1240
2018-04-29T05:03:28.834Z,1280
2018-04-29T05:04:29.550Z,1284
2018-04-29T05:05:30.265Z,1308
2018-04-29T05:06:30.983Z,1328
2018-04-29T05:07:31.701Z,1340
2018-04-29T05:08:32.416Z,1344
2018-04-29T05:09:33.132Z,1340
2018-04-29T05:10:33.849Z,1344
2018-04-29T05:11:34.565Z,1352
2018-04-29T05:12:35.282Z,1368
2018-04-29T05:13:36.000Z,1396
2018-04-29T05:14:36.719Z,1436
2018-04-29T05:15:37.434Z,1472
2018-04-29T05:16:38.162Z,1480
2018-04-29T05:17:38.877Z,1480
2018-04-29T05:18:39.595Z,1488
2018-04-29T05:19:40.313Z,1504
2018-04-29T05:20:41.030Z,1512
2018-04-29T05:21:41.747Z,1548
2018-04-29T05:22:42.462Z,1600
2018-04-29T05:23:43.181Z,1672
2018-04-29T05:24:43.896Z,1800
2018-04-29T05:25:44.612Z,1956
2018-04-29T05:26:45.329Z,2076
2018-04-29T05:27:46.048Z,2164
2018-04-29T05:28:46.765Z,2284
2018-04-29T05:29:47.482Z,2428
2018-04-29T05:30:48.197Z,2632
2018-04-29T05:31:48.914Z,2800
2018-04-29T05:32:49.631Z,2896
2018-04-29T05:33:50.348Z,2900
2018-04-29T05:34:51.067Z,2888
2018-04-29T05:35:51.787Z,2892
2018-04-29T05:36:52.506Z,3032
2018-04-29T05:37:53.220Z,3248
2018-04-29T05:38:53.939Z,3424
2018-04-29T05:39:54.656Z,3480
2018-04-29T05:40:55.373Z,3360
2018-04-29T05:41:56.105Z,3192
2018-04-29T05:42:56.820Z,3088
2018-04-29T05:43:57.539Z,3028
2018-04-29T05:44:58.256Z,3052
2018-04-29T05:45:58.973Z,3140
2018-04-29T05:46:59.706Z,3296
2018-04-29T05:48:00.429Z,3560
2018-04-29T05:49:01.155Z,3932
2018-04-29T05:50:01.889Z,4292
2018-04-29T05:51:02.619Z,4368
2018-04-29T05:52:03.340Z,4372
2018-04-29T05:53:04.057Z,4560
2018-04-29T05:54:04.787Z,4716
2018-04-29T05:55:05.539Z,4776
2018-04-29T05:56:06.237Z,4728
2018-04-29T05:57:06.957Z,4736
2018-04-29T05:58:07.674Z,4656
2018-04-29T05:59:08.395Z,4692
2018-04-29T06:00:09.112Z,4948
2018-04-29T06:01:09.833Z,5280
2018-04-29T06:02:10.552Z,5632
2018-04-29T06:03:11.271Z,5984
2018-04-29T06:04:11.991Z,6352
2018-04-29T06:05:12.710Z,6516
2018-04-29T06:06:13.432Z,6656
2018-04-29T06:07:14.163Z,6692
2018-04-29T06:08:14.880Z,6704
2018-04-29T06:09:15.612Z,6552
2018-04-29T06:10:16.331Z,6348
2018-04-29T06:11:17.064Z,6148
2018-04-29T06:12:17.798Z,6056
2018-04-29T06:13:18.529Z,5752
2018-04-29T06:14:19.249Z,5536
2018-04-29T06:15:19.969Z,5128
2018-04-29T06:16:20.686Z,4608
2018-04-29T06:17:21.408Z,4764
2018-04-29T06:18:22.140Z,5072
2018-04-29T06:19:22.873Z,5196
2018-04-29T06:20:23.653Z,5152
2018-04-29T06:21:24.327Z,5172
2018-04-29T06:22:25.045Z,5476
2018-04-29T06:23:25.779Z,5992
2018-04-29T06:24:26.499Z,6532
2018-04-29T06:25:27.218Z,6984
2018-04-29T06:26:27.936Z,7212
2018-04-29T06:27:28.658Z,7248
2018-04-29T06:28:29.378Z,7048
2018-04-29T06:29:30.101Z,7100
2018-04-29T06:30:30.819Z,7044
2018-04-29T06:31:31.541Z,6876
2018-04-29T06:32:32.273Z,6944
2018-04-29T06:33:32.995Z,7116
2018-04-29T06:34:33.719Z,6948
2018-04-29T06:35:34.443Z,6472
2018-04-29T06:36:35.170Z,6100
2018-04-29T06:37:35.890Z,6104
2018-04-29T06:38:36.610Z,6416
2018-04-29T06:39:37.333Z,6824
2018-04-29T06:40:38.068Z,7268
2018-04-29T06:41:38.799Z,8068
2018-04-29T06:42:39.522Z,9304
2018-04-29T06:43:40.245Z,10072
2018-04-29T06:44:40.969Z,9716
2018-04-29T06:45:41.689Z,9276
2018-04-29T06:46:42.411Z,8516
2018-04-29T06:47:43.145Z,7932
2018-04-29T06:48:43.864Z,8504
2018-04-29T06:49:44.586Z,8464
2018-04-29T06:50:45.323Z,7772
2018-04-29T06:51:46.045Z,6848
2018-04-29T06:52:46.781Z,7120
2018-04-29T06:53:47.516Z,7368
2018-04-29T06:54:48.238Z,10188
2018-04-29T06:55:48.961Z,10892
2018-04-29T06:56:49.690Z,11796
2018-04-29T06:57:50.425Z,11072
2018-04-29T06:58:51.148Z,9960
2018-04-29T06:59:51.871Z,9456
2018-04-29T07:00:52.661Z,9256
2018-04-29T07:01:53.318Z,9304
2018-04-29T07:02:54.040Z,9392
2018-04-29T07:03:54.765Z,9116
2018-04-29T07:04:55.488Z,9044
2018-04-29T07:05:56.212Z,10176
2018-04-29T07:06:56.935Z,9224
2018-04-29T07:07:57.658Z,8268
2018-04-29T07:08:58.380Z,8232
2018-04-29T07:09:59.116Z,7548
2018-04-29T07:10:59.837Z,8404
2018-04-29T07:12:00.563Z,11240
2018-04-29T07:13:01.283Z,8592
2018-04-29T07:14:02.023Z,9960
2018-04-29T07:15:02.744Z,8416
2018-04-29T07:16:03.467Z,7604
2018-04-29T07:17:04.190Z,25632
2018-04-29T07:18:04.916Z,33600
2018-04-29T07:19:05.656Z,40448
2018-04-29T07:20:06.380Z,43936
2018-04-29T07:21:07.104Z,43616
2018-04-29T07:22:07.831Z,43136
2018-04-29T07:23:08.558Z,45664
2018-04-29T07:24:09.288Z,44256
2018-04-29T07:25:10.018Z,21280
2018-04-29T07:26:10.744Z,49504
2018-04-29T07:27:11.473Z,48992
2018-04-29T07:28:12.201Z,49152
2018-04-29T07:29:12.934Z,48224
2018-04-29T07:30:13.662Z,30016
2018-04-29T07:31:14.392Z,13940
2018-04-29T07:32:15.137Z,23744
2018-04-29T07:33:15.869Z,9680
2018-04-29T07:34:16.597Z,8604
2018-04-29T07:35:17.340Z,8452
2018-04-29T07:36:18.068Z,7636
2018-04-29T07:37:18.808Z,7620
2018-04-29T07:38:19.551Z,7836
2018-04-29T07:39:20.277Z,7728
2018-04-29T07:40:21.013Z,7948
2018-04-29T07:41:21.751Z,8232
2018-04-29T07:42:22.486Z,8772
2018-04-29T07:43:23.229Z,10056
2018-04-29T07:44:23.964Z,11308
2018-04-29T07:45:24.688Z,11480
2018-04-29T07:46:25.483Z,9220
2018-04-29T07:47:26.148Z,7032
2018-04-29T07:48:26.858Z,5464
2018-04-29T07:49:27.580Z,4548
2018-04-29T07:50:28.304Z,4016
2018-04-29T07:51:29.031Z,4008
2018-04-29T07:52:29.809Z,4132
2018-04-29T07:53:30.475Z,3976
2018-04-29T07:54:31.196Z,3892
2018-04-29T07:55:31.936Z,4288
2018-04-29T07:56:32.652Z,4428
2018-04-29T07:57:33.389Z,4400
2018-04-29T07:58:34.110Z,4444
2018-04-29T07:59:34.845Z,4700
2018-04-29T08:00:35.582Z,4852
2018-04-29T08:01:36.305Z,4864
2018-04-29T08:02:37.026Z,4676
2018-04-29T08:03:37.748Z,4452
2018-04-29T08:04:38.469Z,4496
2018-04-29T08:05:39.193Z,4712
2018-04-29T08:06:39.916Z,5056
2018-04-29T08:07:40.636Z,5604
2018-04-29T08:08:41.357Z,6104
2018-04-29T08:09:42.081Z,6376
2018-04-29T08:10:42.801Z,6620
2018-04-29T08:11:43.526Z,7020
2018-04-29T08:12:44.245Z,7024
2018-04-29T08:13:44.981Z,6160
2018-04-29T08:14:45.712Z,5420
2018-04-29T08:15:46.483Z,4800
2018-04-29T08:16:47.154Z,3960
2018-04-29T08:17:47.875Z,3704
2018-04-29T08:18:48.597Z,3468
2018-04-29T08:19:49.319Z,3380
2018-04-29T08:20:50.040Z,3184
2018-04-29T08:21:50.761Z,3048
2018-04-29T08:22:51.493Z,3072
2018-04-29T08:23:52.214Z,3172
2018-04-29T08:24:52.937Z,3592
2018-04-29T08:25:53.657Z,3772
2018-04-29T08:26:54.382Z,3600
2018-04-29T08:27:55.100Z,3428
2018-04-29T08:28:55.822Z,3584
2018-04-29T08:29:56.551Z,3896
2018-04-29T08:30:57.276Z,4108
2018-04-29T08:31:58.001Z,4400
2018-04-29T08:32:58.719Z,4992
2018-04-29T08:33:59.439Z,5140
2018-04-29T08:35:00.160Z,5636
2018-04-29T08:36:00.882Z,6144
2018-04-29T08:37:01.603Z,6148
2018-04-29T08:38:02.324Z,6456
2018-04-29T08:39:03.046Z,7184
2018-04-29T08:40:03.778Z,7100
2018-04-29T08:41:04.499Z,6384
2018-04-29T08:42:05.221Z,5752
2018-04-29T08:43:05.943Z,4816
2018-04-29T08:44:06.674Z,4632
2018-04-29T08:45:07.384Z,4300
2018-04-29T08:46:08.106Z,4032
2018-04-29T08:47:08.832Z,4228
2018-04-29T08:48:09.548Z,4328
2018-04-29T08:49:10.270Z,4524
2018-04-29T08:50:11.034Z,5244
2018-04-29T08:51:11.712Z,6284
2018-04-29T08:52:12.432Z,7484
2018-04-29T08:53:13.154Z,9016
2018-04-29T08:54:13.875Z,12028
2018-04-29T08:55:14.598Z,26304
2018-04-29T08:56:15.324Z,35008
2018-04-29T08:57:16.057Z,35584
2018-04-29T08:58:16.781Z,26016
2018-04-29T08:59:17.504Z,17280
2018-04-29T09:00:18.233Z,12576
2018-04-29T09:01:18.966Z,9064
2018-04-29T09:02:19.689Z,9068
2018-04-29T09:03:20.411Z,9560
2018-04-29T09:04:21.136Z,9004
2018-04-29T09:05:21.860Z,8428
2018-04-29T09:06:22.581Z,8316
2018-04-29T09:07:23.302Z,9148
2018-04-29T09:08:24.039Z,12076
2018-04-29T09:09:24.775Z,16768
2018-04-29T09:10:25.500Z,16060
2018-04-29T09:11:26.233Z,11276
2018-04-29T09:12:26.963Z,8396
2018-04-29T09:13:27.687Z,7096
2018-04-29T09:14:28.421Z,7416
2018-04-29T09:15:29.146Z,7520
2018-04-29T09:16:29.868Z,5716
2018-04-29T09:17:30.660Z,5608
2018-04-29T09:18:31.316Z,6036
2018-04-29T09:19:32.039Z,6296
2018-04-29T09:20:32.763Z,7196
2018-04-29T09:21:33.485Z,7032
2018-04-29T09:22:34.221Z,5988
2018-04-29T09:23:34.940Z,6160
2018-04-29T09:24:35.663Z,6668
2018-04-29T09:25:36.385Z,6608
2018-04-29T09:26:37.121Z,6228
2018-04-29T09:27:37.828Z,6560
2018-04-29T09:28:38.564Z,7952
2018-04-29T09:29:39.300Z,8664
2018-04-29T09:30:40.019Z,7216
2018-04-29T09:31:40.745Z,7008
2018-04-29T09:32:41.477Z,7588
2018-04-29T09:33:42.212Z,8240
2018-04-29T09:34:42.945Z,8492
2018-04-29T09:35:43.674Z,8776
2018-04-29T09:36:44.404Z,9328
2018-04-29T09:37:45.124Z,9172
2018-04-29T09:38:45.846Z,8564
2018-04-29T09:39:46.570Z,8324
2018-04-29T09:40:47.291Z,7732
2018-04-29T09:41:48.014Z,8036
2018-04-29T09:42:48.737Z,7536
2018-04-29T09:43:49.460Z,6304
2018-04-29T09:44:50.195Z,4664
2018-04-29T09:45:50.916Z,3580
2018-04-29T09:46:51.637Z,3088
2018-04-29T09:47:52.371Z,2992
2018-04-29T09:48:53.093Z,3356
2018-04-29T09:49:53.816Z,3412
2018-04-29T09:50:54.537Z,3216
2018-04-29T09:51:55.264Z,2576
2018-04-29T09:52:55.978Z,2032
2018-04-29T09:53:56.702Z,1508
2018-04-29T09:54:57.434Z,1528
2018-04-29T09:55:58.154Z,1900
2018-04-29T09:56:58.874Z,2328
2018-04-29T09:57:59.595Z,2808
2018-04-29T09:59:00.316Z,3400
2018-04-29T10:00:01.040Z,4060
2018-04-29T10:01:01.821Z,4984
2018-04-29T10:02:02.490Z,5656
2018-04-29T10:03:03.212Z,6148
2018-04-29T10:04:03.940Z,6748
2018-04-29T10:05:04.666Z,7368
2018-04-29T10:06:05.387Z,7868
2018-04-29T10:07:06.109Z,8336
2018-04-29T10:08:06.830Z,8500
2018-04-29T10:09:07.567Z,7780
2018-04-29T10:10:08.302Z,7616
2018-04-29T10:11:09.033Z,7412
2018-04-29T10:12:09.755Z,8088
2018-04-29T10:13:10.494Z,8596
2018-04-29T10:14:11.206Z,9028
2018-04-29T10:15:11.942Z,10092
2018-04-29T10:16:12.664Z,11696
2018-04-29T10:17:13.399Z,14000
2018-04-29T10:18:14.124Z,14704
2018-04-29T10:19:14.859Z,11372
2018-04-29T10:20:15.581Z,10008
2018-04-29T10:21:16.305Z,11836
2018-04-29T10:22:17.029Z,14000
2018-04-29T10:23:17.750Z,15140
2018-04-29T10:24:18.485Z,13972
2018-04-29T10:25:19.222Z,12668
2018-04-29T10:26:19.945Z,12904
2018-04-29T10:27:20.681Z,14296
2018-04-29T10:28:21.421Z,14396
2018-04-29T10:29:22.142Z,13232
2018-04-29T10:30:22.879Z,15916
2018-04-29T10:31:23.605Z,16608
2018-04-29T10:32:24.348Z,13836
2018-04-29T10:33:25.054Z,13132
2018-04-29T10:34:25.780Z,13744
2018-04-29T10:35:26.500Z,14236
2018-04-29T10:36:27.226Z,16544
2018-04-29T10:37:27.953Z,19232
2018-04-29T10:38:28.689Z,17760
2018-04-29T10:39:29.428Z,17824
2018-04-29T10:40:30.152Z,35552
2018-04-29T10:41:30.881Z,41504
2018-04-29T10:42:31.606Z,49504
2018-04-29T10:43:32.336Z,76288
2018-04-29T10:44:33.063Z,98400
2018-04-29T10:45:33.794Z,91104
2018-04-29T10:46:34.539Z,70080
2018-04-29T10:47:35.276Z,89088
2018-04-29T10:48:36.007Z,52000
2018-04-29T10:49:36.742Z,34272
2018-04-29T10:50:37.471Z,41376
2018-04-29T10:51:38.217Z,43360
2018-04-29T10:52:38.946Z,36544
2018-04-29T10:53:39.677Z,38464
2018-04-29T10:54:40.408Z,29600
2018-04-29T10:55:41.137Z,25984
2018-04-29T10:56:41.892Z,26880
2018-04-29T10:57:42.612Z,25984
2018-04-29T10:58:43.361Z,23040
2018-04-29T10:59:44.085Z,21024
2018-04-29T11:00:44.812Z,19008
2018-04-29T11:01:45.542Z,18688
2018-04-29T11:02:46.271Z,21504
2018-04-29T11:03:47.001Z,22528
2018-04-29T11:04:47.729Z,25696
2018-04-29T11:05:48.471Z,27392
2018-04-29T11:06:49.217Z,32384
2018-04-29T11:07:49.941Z,25856
2018-04-29T11:08:50.673Z,28640
2018-04-29T11:09:51.404Z,28064
2018-04-29T11:10:52.135Z,84928
2018-04-29T11:11:52.866Z,82016
2018-04-29T11:12:53.596Z,77856
2018-04-29T11:13:54.328Z,90368
2018-04-29T11:14:55.062Z,80224
2018-04-29T11:15:55.795Z,90112
2018-04-29T11:16:56.528Z,93344
2018-04-29T11:17:57.276Z,89440
2018-04-29T11:18:58.012Z,68384
2018-04-29T11:19:58.756Z,20224
2018-04-29T11:20:59.487Z,16384
2018-04-29T11:22:00.235Z,17248
2018-04-29T11:23:00.976Z,19072
2018-04-29T11:24:01.708Z,26624
2018-04-29T11:25:02.444Z,40288
2018-04-29T11:26:03.172Z,35488
2018-04-29T11:27:03.901Z,29504
2018-04-29T11:28:04.632Z,29472
2018-04-29T11:29:05.363Z,44096
2018-04-29T11:30:06.094Z,39520
2018-04-29T11:31:06.827Z,78304
2018-04-29T11:32:07.571Z,52480
2018-04-29T11:33:08.302Z,57024
2018-04-29T11:34:09.033Z,34944
2018-04-29T11:35:09.778Z,32512
2018-04-29T11:36:10.523Z,49696
2018-04-29T11:37:11.267Z,28640
2018-04-29T11:38:12.003Z,23552
2018-04-29T11:39:12.729Z,20672
2018-04-29T11:40:13.457Z,20224
2018-04-29T11:41:14.188Z,21312
2018-04-29T11:42:14.918Z,22144
2018-04-29T11:43:15.647Z,24736
2018-04-29T11:44:16.375Z,25536
2018-04-29T11:45:17.105Z,32736
2018-04-29T11:46:17.850Z,38016
2018-04-29T11:47:18.587Z,35712
2018-04-29T11:48:19.318Z,24288
2018-04-29T11:49:20.047Z,22880
2018-04-29T11:50:20.776Z,26368
2018-04-29T11:51:21.504Z,28672
2018-04-29T11:52:22.235Z,28224
2018-04-29T11:53:22.975Z,28160
2018-04-29T11:54:23.707Z,22304
2018-04-29T11:55:24.443Z,22752
2018-04-29T11:56:25.175Z,32768
2018-04-29T11:57:25.899Z,49216
2018-04-29T11:58:26.631Z,26048
2018-04-29T11:59:27.372Z,24064
2018-04-29T12:00:28.103Z,39968
2018-04-29T12:01:28.833Z,29472
2018-04-29T12:02:29.601Z,26400
2018-04-29T12:03:30.293Z,37792
2018-04-29T12:04:31.028Z,46560
2018-04-29T12:05:31.756Z,61984
2018-04-29T12:06:32.492Z,73248
2018-04-29T12:07:33.219Z,66112
2018-04-29T12:08:33.951Z,75008
2018-04-29T12:09:34.682Z,56928
2018-04-29T12:10:35.414Z,57888
2018-04-29T12:11:36.147Z,59392
2018-04-29T12:12:36.875Z,59680
2018-04-29T12:13:37.623Z,73184
2018-04-29T12:14:38.370Z,73056
2018-04-29T12:15:39.102Z,84160
2018-04-29T12:16:39.836Z,92992
2018-04-29T12:17:40.569Z,83968
2018-04-29T12:18:41.303Z,75936
2018-04-29T12:19:42.036Z,26752
2018-04-29T12:20:42.770Z,41888
2018-04-29T12:21:43.504Z,27136
2018-04-29T12:22:44.247Z,57920
2018-04-29T12:23:44.982Z,74944
2018-04-29T12:24:45.731Z,73568
2018-04-29T12:25:46.472Z,50240
2018-04-29T12:26:47.203Z,20256
2018-04-29T12:27:47.934Z,28640
2018-04-29T12:28:48.665Z,23936
2018-04-29T12:29:49.395Z,23072
2018-04-29T12:30:50.127Z,23008
2018-04-29T12:31:50.858Z,28416
2018-04-29T12:32:51.587Z,21824
2018-04-29T12:33:52.321Z,19104
2018-04-29T12:34:53.075Z,16352
2018-04-29T12:35:53.817Z,24960
2018-04-29T12:36:54.546Z,38912
2018-04-29T12:37:55.276Z,41504
2018-04-29T12:38:56.007Z,61760
2018-04-29T12:39:56.829Z,73888
2018-04-29T12:40:57.477Z,25920
2018-04-29T12:41:58.221Z,23360
2018-04-29T12:42:58.950Z,30048
2018-04-29T12:43:59.693Z,19136
2018-04-29T12:45:00.426Z,20672
2018-04-29T12:46:01.169Z,19680
2018-04-29T12:47:01.897Z,21312
2018-04-29T12:48:02.627Z,28512
2018-04-29T12:49:03.358Z,32448
2018-04-29T12:50:04.089Z,29856
2018-04-29T12:51:04.817Z,33408
2018-04-29T12:52:05.564Z,23552
2018-04-29T12:53:06.290Z,20320
2018-04-29T12:54:07.037Z,14788
2018-04-29T12:55:07.778Z,14404
2018-04-29T12:56:08.547Z,14144
2018-04-29T12:57:09.274Z,14056
2018-04-29T12:58:10.006Z,14496
2018-04-29T12:59:10.745Z,14512
2018-04-29T13:00:11.530Z,15052
2018-04-29T13:01:12.200Z,17760
2018-04-29T13:02:12.929Z,20832
2018-04-29T13:03:13.657Z,22912
2018-04-29T13:04:14.397Z,48672
2018-04-29T13:05:15.123Z,80032
2018-04-29T13:06:15.852Z,60256
2018-04-29T13:07:16.582Z,45856
2018-04-29T13:08:17.313Z,71200
2018-04-29T13:09:18.042Z,58624
2018-04-29T13:10:18.782Z,66112
2018-04-29T13:11:19.511Z,49664
2018-04-29T13:12:20.242Z,67552
2018-04-29T13:13:20.972Z,74272
2018-04-29T13:14:21.700Z,64384
2018-04-29T13:15:22.430Z,44832
2018-04-29T13:16:23.158Z,25376
2018-04-29T13:17:23.889Z,23584
2018-04-29T13:18:24.623Z,34208
2018-04-29T13:19:25.367Z,17664
2018-04-29T13:20:26.106Z,35360
2018-04-29T13:21:26.831Z,79776
2018-04-29T13:22:27.559Z,67584
2018-04-29T13:23:28.285Z,23520
2018-04-29T13:24:29.026Z,24064
2018-04-29T13:25:29.764Z,30432
2018-04-29T13:26:30.490Z,27968
2018-04-29T13:27:31.221Z,24544
2018-04-29T13:28:31.957Z,36320
2018-04-29T13:29:32.769Z,18240
2018-04-29T13:30:33.411Z,15400
2018-04-29T13:31:34.140Z,15260
2018-04-29T13:32:34.915Z,15044
2018-04-29T13:33:35.691Z,73376
2018-04-29T13:34:36.415Z,30080
2018-04-29T13:35:37.202Z,72512
2018-04-29T13:36:37.875Z,29088
2018-04-29T13:37:38.616Z,14100
2018-04-29T13:38:39.418Z,28576
2018-04-29T13:39:40.087Z,63776
2018-04-29T13:40:40.828Z,21376
2018-04-29T13:41:41.557Z,72800
2018-04-29T13:42:42.284Z,17728
2018-04-29T13:43:43.022Z,70272
2018-04-29T13:44:43.749Z,15352